Time;durP1;ratioP1;P1;durP2;ratioP2;P2;SDS_P1;SDS_P2;PMS_P1;PMS_P2;Temp;Humidity;BMP_temperature;BMP_pressure;BME280_temperature;BME280_humidity;BME280_pressure;Samples;Min_cycle;Max_cycle;Signal;HPM_P1;HPM_P2
2022/11/30 00:01:29;;;;;;;3.45;1.00;;;;;;;13.37;37.03;101417.84;5034632;28;20449;-52
2022/11/30 00:03:56;;;;;;;1.75;0.77;;;;;;;13.25;37.46;101417.66;5058727;22;20052;-52
2022/11/30 00:06:23;;;;;;;6.40;1.05;;;;;;;13.28;37.57;101417.25;5054529;28;20090;-50
2022/11/30 00:08:57;;;;;;;2.22;0.70;;;;;;;13.23;37.87;101419.75;5054471;28;20112;-51
2022/11/30 00:11:27;;;;;;;3.28;0.95;;;;;;;13.08;38.40;101414.56;5054279;28;20390;-52
2022/11/30 00:13:53;;;;;;;3.33;0.75;;;;;;;12.92;38.60;101414.97;5054492;28;20043;-52
2022/11/30 00:16:20;;;;;;;3.80;0.90;;;;;;;13.00;38.37;101412.09;5054341;28;20025;-50
2022/11/30 00:18:46;;;;;;;2.72;1.35;;;;;;;13.09;38.13;101413.53;5054365;28;20407;-50
2022/11/30 00:21:14;;;;;;;6.82;1.15;;;;;;;13.22;37.99;101415.41;5050746;28;20119;-51
2022/11/30 00:23:42;;;;;;;5.93;1.00;;;;;;;13.08;38.49;101422.63;5029040;28;20033;-48
2022/11/30 00:26:11;;;;;;;2.50;1.10;;;;;;;13.16;38.18;101421.59;5019888;28;20109;-50
2022/11/30 00:28:38;;;;;;;2.80;1.10;;;;;;;13.06;37.84;101418.50;5021634;28;20014;-50
2022/11/30 00:31:07;;;;;;;2.83;1.02;;;;;;;13.07;37.27;101415.59;5013396;28;20030;-45
2022/11/30 00:33:35;;;;;;;3.67;1.20;;;;;;;12.90;37.51;101417.88;5016029;28;20053;-45
2022/11/30 00:36:13;;;;;;;3.10;0.80;;;;;;;12.94;37.44;101408.38;5034018;28;20074;-44
2022/11/30 00:38:39;;;;;;;3.30;0.90;;;;;;;12.80;38.32;101417.47;5034202;28;20017;-45
2022/11/30 00:41:06;;;;;;;4.88;0.95;;;;;;;12.77;38.36;101417.91;5030023;28;20458;-45
2022/11/30 00:43:32;;;;;;;2.22;1.33;;;;;;;12.69;38.77;101420.75;5021906;28;20065;-47
2022/11/30 00:45:58;;;;;;;2.35;0.68;;;;;;;12.71;38.88;101418.69;5016296;28;20536;-48
2022/11/30 00:48:25;;;;;;;2.92;0.85;;;;;;;12.59;39.23;101431.09;5020269;28;20052;-49
2022/11/30 00:50:51;;;;;;;1.15;0.65;;;;;;;12.59;39.28;101429.22;5018011;28;20096;-46
2022/11/30 00:53:19;;;;;;;2.10;0.70;;;;;;;12.53;39.20;101424.66;5032607;28;20032;-49
2022/11/30 00:55:46;;;;;;;2.17;1.10;;;;;;;12.52;39.41;101419.50;5023705;28;20524;-48
2022/11/30 00:58:12;;;;;;;2.80;0.80;;;;;;;12.49;40.27;101430.66;5026275;28;20037;-47
2022/11/30 01:00:39;;;;;;;2.80;0.70;;;;;;;12.42;40.52;101423.41;5033321;28;20366;-46
2022/11/30 01:03:05;;;;;;;2.15;0.75;;;;;;;12.35;40.79;101425.25;5033420;28;20033;-47
2022/11/30 01:05:33;;;;;;;4.18;0.80;;;;;;;12.27;40.96;101422.78;5033841;28;20173;-50
2022/11/30 01:08:00;;;;;;;1.23;0.70;;;;;;;12.16;41.19;101431.44;5033463;28;20140;-49
2022/11/30 01:10:27;;;;;;;4.57;1.10;;;;;;;12.13;41.43;101432.63;5033545;28;20411;-48
2022/11/30 01:12:53;;;;;;;3.75;1.30;;;;;;;11.93;42.23;101431.72;5033322;28;20033;-46
2022/11/30 01:15:20;;;;;;;2.88;1.00;;;;;;;11.91;41.96;101427.59;5026555;28;20383;-46
2022/11/30 01:17:46;;;;;;;2.88;1.00;;;;;;;11.88;42.44;101432.34;5013789;28;20111;-46
2022/11/30 01:20:12;;;;;;;4.22;1.60;;;;;;;11.77;42.79;101434.72;5012174;28;20121;-46
2022/11/30 01:22:38;;;;;;;2.88;1.30;;;;;;;11.70;43.00;101436.56;5017520;28;20071;-46
2022/11/30 01:25:05;;;;;;;2.97;1.10;;;;;;;11.60;43.21;101435.09;5028825;28;20030;-46
2022/11/30 01:27:31;;;;;;;4.03;1.70;;;;;;;11.56;43.62;101435.66;5021853;28;20026;-47
2022/11/30 01:29:57;;;;;;;3.30;1.63;;;;;;;11.44;43.94;101432.72;5016118;28;20018;-49
2022/11/30 01:32:24;;;;;;;2.25;1.45;;;;;;;11.36;44.18;101441.72;5032492;28;20175;-46
2022/11/30 01:34:50;;;;;;;5.20;1.70;;;;;;;11.33;44.39;101442.13;5032784;28;20076;-45
2022/11/30 01:37:17;;;;;;;4.40;1.60;;;;;;;11.27;44.64;101447.41;5018286;28;20030;-47
2022/11/30 01:39:43;;;;;;;1.55;1.00;;;;;;;11.04;45.61;101445.00;5014898;28;20068;-46
2022/11/30 01:42:18;;;;;;;8.57;1.27;;;;;;;10.89;46.34;101450.47;5013412;28;20026;-46
2022/11/30 01:44:56;;;;;;;2.78;1.50;;;;;;;10.71;46.65;101453.56;5025930;28;20064;-47
2022/11/30 01:47:36;;;;;;;4.20;1.80;;;;;;;10.63;46.92;101445.69;5029185;28;20111;-45
2022/11/30 01:50:12;;;;;;;5.15;1.67;;;;;;;10.12;48.41;101447.59;5031030;28;20057;-45
2022/11/30 01:52:42;;;;;;;3.95;2.17;;;;;;;9.86;49.13;101450.75;5028764;28;20036;-48
2022/11/30 01:55:33;;;;;;;5.72;3.00;;;;;;;9.60;49.86;101460.06;5012996;28;20030;-44
2022/11/30 01:58:12;;;;;;;4.15;2.45;;;;;;;9.58;49.83;101459.44;5012799;28;20112;-46
2022/11/30 02:00:41;;;;;;;4.55;2.42;;;;;;;9.90;49.28;101455.53;5015263;28;20109;-46
2022/11/30 02:03:15;;;;;;;7.40;2.85;;;;;;;9.56;50.35;101452.63;5028407;28;20021;-49
2022/11/30 02:05:41;;;;;;;4.95;2.47;;;;;;;9.68;49.55;101454.63;5032429;28;20540;-45
2022/11/30 02:08:09;;;;;;;4.72;2.25;;;;;;;9.63;49.94;101456.22;5032174;28;20037;-48
2022/11/30 02:10:39;;;;;;;7.82;2.35;;;;;;;9.66;49.75;101459.34;5028155;28;20029;-49
2022/11/30 02:13:11;;;;;;;5.72;2.03;;;;;;;9.63;50.09;101459.72;5021522;28;20481;-47
2022/11/30 02:15:49;;;;;;;5.93;2.17;;;;;;;9.62;50.42;101457.22;5028638;28;20052;-45
2022/11/30 02:18:24;;;;;;;4.53;2.00;;;;;;;9.58;50.91;101454.09;5026983;28;20031;-47
2022/11/30 02:21:11;;;;;;;4.68;2.10;;;;;;;9.36;51.97;101463.84;5031672;28;20029;-47
2022/11/30 02:23:43;;;;;;;5.65;2.28;;;;;;;8.50;54.69;101465.09;5012745;28;20042;-46
2022/11/30 02:26:17;;;;;;;6.68;2.10;;;;;;;8.32;55.26;101470.63;5029396;28;20166;-48
2022/11/30 02:29:03;;;;;;;5.38;2.28;;;;;;;8.99;53.92;101472.69;5014041;28;20049;-48
2022/11/30 02:31:56;;;;;;;1.80;1.08;;;;;;;9.18;53.48;101474.88;5024589;28;20034;-45
2022/11/30 02:34:26;;;;;;;3.85;1.33;;;;;;;8.81;54.20;101480.19;5012306;28;20474;-45
2022/11/30 02:36:54;;;;;;;4.20;1.10;;;;;;;8.59;55.14;101480.00;5026802;28;20048;-45
2022/11/30 02:39:22;;;;;;;2.25;1.30;;;;;;;8.05;57.23;101492.44;5031752;28;20033;-44
2022/11/30 02:41:48;;;;;;;2.97;1.23;;;;;;;7.92;57.66;101487.69;5031508;28;20033;-46
2022/11/30 02:44:15;;;;;;;3.30;1.25;;;;;;;8.06;57.58;101492.28;5025416;28;20030;-45
2022/11/30 02:46:56;;;;;;;3.67;1.15;;;;;;;8.41;56.70;101506.16;5012219;28;20026;-45
2022/11/30 02:49:30;;;;;;;4.40;1.27;;;;;;;8.26;56.97;101507.84;5013503;28;20112;-46
2022/11/30 02:51:57;;;;;;;2.55;1.10;;;;;;;8.35;56.46;101507.66;5031328;28;20108;-47
2022/11/30 02:54:24;;;;;;;1.67;1.20;;;;;;;8.34;56.49;101507.81;5017078;28;20490;-44
2022/11/30 02:56:50;;;;;;;1.65;1.10;;;;;;;8.16;57.51;101510.72;5011016;28;20068;-47
2022/11/30 02:59:17;;;;;;;2.33;1.15;;;;;;;8.38;56.86;101520.69;5011127;28;20039;-45
2022/11/30 03:01:44;;;;;;;2.33;1.58;;;;;;;8.43;56.48;101514.78;5024781;28;20037;-45
2022/11/30 03:04:10;;;;;;;3.17;1.45;;;;;;;8.21;57.40;101524.38;5031508;28;20045;-45
2022/11/30 03:06:37;;;;;;;4.53;1.42;;;;;;;8.10;57.67;101528.25;5017006;28;20022;-45
2022/11/30 03:09:03;;;;;;;3.03;1.30;;;;;;;8.19;57.16;101531.72;5011910;28;20128;-48
2022/11/30 03:11:29;;;;;;;1.63;1.02;;;;;;;8.37;56.34;101534.16;5011724;28;20025;-45
2022/11/30 03:13:56;;;;;;;4.32;1.40;;;;;;;8.18;57.08;101530.91;5011853;28;20029;-45
2022/11/30 03:16:22;;;;;;;3.83;1.40;;;;;;;8.30;56.66;101530.50;5011693;28;20026;-47
2022/11/30 03:18:48;;;;;;;2.75;1.15;;;;;;;8.17;56.95;101531.91;5012318;28;20022;-45
2022/11/30 03:21:14;;;;;;;3.95;1.50;;;;;;;7.75;58.37;101528.72;5011286;28;20179;-46
2022/11/30 03:23:41;;;;;;;8.68;1.50;;;;;;;7.41;59.66;101529.78;5015496;28;20025;-45
2022/11/30 03:26:07;;;;;;;3.08;1.60;;;;;;;7.24;59.95;101526.28;5031063;28;20017;-47
2022/11/30 03:28:35;;;;;;;3.20;1.27;;;;;;;6.85;61.60;101534.09;5031484;28;20030;-48
2022/11/30 03:31:02;;;;;;;4.45;1.30;;;;;;;6.95;61.23;101528.63;5031276;28;20025;-44
2022/11/30 03:33:28;;;;;;;2.08;1.40;;;;;;;7.28;60.21;101538.28;5031328;28;20025;-47
2022/11/30 03:36:03;;;;;;;4.82;1.10;;;;;;;7.61;59.07;101530.25;5030770;28;20116;-47
2022/11/30 03:38:30;;;;;;;3.05;1.55;;;;;;;7.60;59.01;101533.91;5031248;28;20087;-45
2022/11/30 03:41:07;;;;;;;4.28;1.63;;;;;;;7.59;59.08;101538.41;5024827;28;20112;-44
2022/11/30 03:43:34;;;;;;;2.92;1.38;;;;;;;7.50;59.42;101536.75;4993746;28;20347;-46
2022/11/30 03:46:00;;;;;;;2.65;1.30;;;;;;;7.35;59.73;101533.13;5011735;28;20091;-45
2022/11/30 03:48:27;;;;;;;3.40;1.60;;;;;;;7.19;60.21;101535.78;5011638;28;20026;-44
2022/11/30 03:50:53;;;;;;;3.47;1.70;;;;;;;7.27;60.17;101528.59;5043745;22;20524;-46
2022/11/30 03:53:21;;;;;;;7.70;1.80;;;;;;;7.12;60.36;101538.28;5037097;28;20025;-45
2022/11/30 03:55:52;;;;;;;4.40;1.48;;;;;;;7.40;59.52;101528.13;5037572;28;20048;-48
2022/11/30 03:58:19;;;;;;;5.88;1.75;;;;;;;7.36;59.67;101526.78;5049346;28;20108;-45
2022/11/30 04:00:45;;;;;;;3.30;1.55;;;;;;;7.36;59.89;101532.94;5050842;28;20028;-45
2022/11/30 04:03:11;;;;;;;3.92;1.77;;;;;;;7.34;59.82;101528.78;5049537;28;20033;-45
2022/11/30 04:05:37;;;;;;;5.25;1.63;;;;;;;7.46;59.35;101524.78;5050325;28;20066;-46
2022/11/30 04:08:04;;;;;;;2.58;1.40;;;;;;;7.43;59.31;101533.09;5048691;28;20418;-46
2022/11/30 04:10:30;;;;;;;5.80;1.70;;;;;;;7.46;59.41;101531.94;5050411;28;20021;-47
2022/11/30 04:12:56;;;;;;;4.95;1.80;;;;;;;7.42;59.67;101528.78;5053627;28;20041;-44
2022/11/30 04:15:22;;;;;;;4.38;1.98;;;;;;;7.37;59.76;101533.75;5053316;28;20060;-44
2022/11/30 04:17:48;;;;;;;4.07;1.98;;;;;;;7.32;60.21;101526.28;5050813;28;20116;-44
2022/11/30 04:20:15;;;;;;;5.10;1.77;;;;;;;7.31;60.39;101529.94;5034120;28;20513;-44
2022/11/30 04:22:41;;;;;;;3.80;1.73;;;;;;;7.23;60.26;101537.13;5034588;28;20643;-44
2022/11/30 04:25:08;;;;;;;3.47;1.65;;;;;;;7.21;60.25;101536.44;5054351;28;20043;-45
2022/11/30 04:27:34;;;;;;;2.97;1.83;;;;;;;7.22;60.10;101543.41;5043934;28;20036;-43
2022/11/30 04:30:00;;;;;;;5.53;2.38;;;;;;;7.31;59.92;101534.44;5053511;28;20025;-48
2022/11/30 04:32:26;;;;;;;6.10;2.78;;;;;;;7.23;59.58;101537.94;5053741;28;20052;-46
2022/11/30 04:34:52;;;;;;;5.35;2.83;;;;;;;7.19;59.83;101546.44;5049874;28;20478;-46
2022/11/30 04:37:18;;;;;;;3.85;2.63;;;;;;;7.04;60.18;101546.25;5053825;28;20098;-45
2022/11/30 04:39:45;;;;;;;6.43;3.08;;;;;;;7.06;59.92;101542.44;5051547;28;20128;-44
2022/11/30 04:42:11;;;;;;;3.60;2.92;;;;;;;6.99;59.95;101544.06;5052877;28;20025;-48
2022/11/30 04:44:37;;;;;;;6.63;3.38;;;;;;;6.90;60.09;101542.44;5051949;28;20116;-44
2022/11/30 04:47:03;;;;;;;6.43;3.13;;;;;;;6.85;60.39;101534.09;5053895;28;20580;-48
2022/11/30 04:49:30;;;;;;;5.90;3.53;;;;;;;6.87;60.34;101540.91;5051152;28;20120;-44
2022/11/30 04:51:56;;;;;;;5.63;3.50;;;;;;;6.95;60.08;101540.09;5047493;28;20449;-44
2022/11/30 04:54:22;;;;;;;5.90;3.33;;;;;;;6.79;60.57;101543.56;5051242;28;20079;-46
2022/11/30 04:56:48;;;;;;;5.78;2.70;;;;;;;6.73;60.63;101540.75;5049534;28;20033;-45
2022/11/30 04:59:14;;;;;;;3.88;2.88;;;;;;;6.77;62.02;101544.72;5046120;28;20033;-44
2022/11/30 05:01:41;;;;;;;9.57;2.95;;;;;;;6.84;61.96;101541.25;5043848;28;20025;-44
2022/11/30 05:04:07;;;;;;;5.47;3.03;;;;;;;6.72;62.49;101547.03;5053281;28;20043;-44
2022/11/30 05:06:33;;;;;;;6.10;3.03;;;;;;;6.82;62.65;101555.72;5050235;28;20075;-44
2022/11/30 05:08:59;;;;;;;7.70;3.38;;;;;;;6.70;62.50;101557.00;5044936;28;20022;-45
2022/11/30 05:11:26;;;;;;;3.30;2.20;;;;;;;6.64;62.65;101555.00;5046137;28;20041;-45
2022/11/30 05:13:52;;;;;;;4.40;2.50;;;;;;;6.59;62.40;101545.69;5048495;28;20040;-44
2022/11/30 05:16:18;;;;;;;2.63;2.22;;;;;;;6.56;62.37;101539.88;5042110;28;20020;-44
2022/11/30 05:18:44;;;;;;;4.60;2.20;;;;;;;6.54;62.20;101545.34;5051287;28;20032;-45
2022/11/30 05:21:10;;;;;;;6.50;2.28;;;;;;;6.49;62.08;101552.13;5051119;28;20032;-45
2022/11/30 05:23:37;;;;;;;4.03;2.50;;;;;;;6.44;62.05;101544.66;5050574;28;20029;-45
2022/11/30 05:26:03;;;;;;;5.22;2.30;;;;;;;6.40;62.48;101545.97;5046246;28;20556;-45
2022/11/30 05:28:30;;;;;;;4.72;2.45;;;;;;;6.49;62.27;101552.97;5047400;28;21020;-44
2022/11/30 05:31:02;;;;;;;7.28;2.90;;;;;;;6.49;61.99;101558.28;5048901;28;20039;-45
2022/11/30 05:33:29;;;;;;;4.07;2.88;;;;;;;6.33;62.32;101552.94;5043954;28;20021;-45
2022/11/30 05:35:55;;;;;;;4.68;2.97;;;;;;;6.33;62.09;101556.44;5053047;28;20066;-47
2022/11/30 05:38:21;;;;;;;5.05;2.88;;;;;;;6.19;62.38;101558.84;5052526;28;20390;-46
2022/11/30 05:40:48;;;;;;;5.43;3.08;;;;;;;6.36;62.54;101560.56;5052271;28;20358;-48
2022/11/30 05:43:14;;;;;;;6.47;3.33;;;;;;;6.38;62.33;101555.09;5052767;28;20040;-48
2022/11/30 05:45:40;;;;;;;7.55;3.20;;;;;;;6.34;62.50;101563.41;5052767;28;20025;-45
2022/11/30 05:48:06;;;;;;;4.03;2.75;;;;;;;6.32;62.26;101564.53;5052511;28;20029;-45
2022/11/30 05:50:32;;;;;;;5.85;3.17;;;;;;;6.38;62.20;101565.72;5051315;28;20107;-45
2022/11/30 05:52:59;;;;;;;5.93;3.58;;;;;;;6.25;62.39;101563.53;5051871;28;20133;-47
2022/11/30 05:55:28;;;;;;;4.80;3.28;;;;;;;6.04;62.72;101563.91;5052505;28;20024;-47
2022/11/30 05:57:54;;;;;;;5.25;3.58;;;;;;;5.95;62.79;101559.56;5052378;28;20021;-48
2022/11/30 06:00:21;;;;;;;4.97;3.40;;;;;;;5.85;62.92;101557.00;5035541;28;20026;-45
2022/11/30 06:02:47;;;;;;;5.35;2.90;;;;;;;5.79;63.11;101553.13;5032591;28;20112;-44
2022/11/30 06:05:13;;;;;;;6.75;3.60;;;;;;;5.82;62.85;101551.97;5032655;28;20036;-48
2022/11/30 06:07:40;;;;;;;5.22;3.22;;;;;;;5.75;62.57;101553.59;5034099;28;20469;-48
2022/11/30 06:10:07;;;;;;;6.75;3.60;;;;;;;5.79;62.89;101550.47;5051920;28;20405;-46
2022/11/30 06:12:33;;;;;;;7.90;3.47;;;;;;;5.75;62.58;101561.56;5052071;28;20124;-48
2022/11/30 06:14:59;;;;;;;7.07;3.10;;;;;;;5.65;62.93;101560.84;5051694;28;20025;-45
2022/11/30 06:17:25;;;;;;;4.35;2.75;;;;;;;5.45;63.14;101563.72;5052181;28;20029;-48
2022/11/30 06:19:52;;;;;;;7.20;2.67;;;;;;;5.58;62.83;101563.28;5052005;28;20033;-45
2022/11/30 06:22:18;;;;;;;6.55;3.03;;;;;;;5.46;63.16;101561.88;5051814;28;20017;-49
2022/11/30 06:24:44;;;;;;;6.32;2.58;;;;;;;5.33;63.31;101564.09;5051495;28;20028;-46
2022/11/30 06:27:10;;;;;;;4.38;2.90;;;;;;;5.56;62.92;101574.09;5035265;28;20504;-48
2022/11/30 06:29:36;;;;;;;4.68;2.92;;;;;;;5.36;63.29;101563.78;5031571;28;20029;-46
2022/11/30 06:32:05;;;;;;;4.50;2.70;;;;;;;5.28;63.75;101572.53;5047094;28;20108;-48
2022/11/30 06:34:31;;;;;;;8.52;3.50;;;;;;;5.21;63.72;101574.13;5048997;28;20071;-45
2022/11/30 06:36:58;;;;;;;7.55;3.63;;;;;;;5.16;63.73;101568.44;5042947;28;20026;-45
2022/11/30 06:39:24;;;;;;;4.22;2.70;;;;;;;5.06;64.21;101565.88;5047719;28;20051;-47
2022/11/30 06:41:50;;;;;;;3.28;2.63;;;;;;;4.95;64.38;101566.94;5049439;28;20025;-47
2022/11/30 06:44:16;;;;;;;4.30;2.58;;;;;;;5.06;63.89;101565.88;5049478;28;20081;-44
2022/11/30 06:46:42;;;;;;;5.32;2.72;;;;;;;5.07;63.74;101566.72;5051744;28;20021;-45
2022/11/30 06:49:08;;;;;;;7.13;2.20;;;;;;;5.10;63.45;101571.69;5051397;28;20047;-46
2022/11/30 06:51:36;;;;;;;5.50;2.42;;;;;;;5.08;63.63;101571.03;5051570;28;20040;-49
2022/11/30 06:54:02;;;;;;;4.55;2.67;;;;;;;5.30;63.67;101579.34;5051859;28;20040;-48
2022/11/30 06:56:28;;;;;;;6.45;2.90;;;;;;;5.04;64.10;101562.53;5051772;28;20028;-47
2022/11/30 06:58:55;;;;;;;4.72;2.47;;;;;;;5.00;64.41;101572.63;5050321;28;20033;-45
2022/11/30 07:01:21;;;;;;;6.10;2.95;;;;;;;4.95;64.50;101572.25;5051051;28;20024;-45
2022/11/30 07:03:47;;;;;;;3.65;2.60;;;;;;;5.03;64.16;101582.91;5051314;28;20056;-45
2022/11/30 07:06:14;;;;;;;5.22;2.67;;;;;;;5.02;64.23;101581.25;5050469;28;20021;-45
2022/11/30 07:08:41;;;;;;;3.38;2.47;;;;;;;4.91;64.20;101593.91;5049702;28;20025;-46
2022/11/30 07:11:08;;;;;;;2.15;1.48;;;;;;;4.81;64.28;101586.03;5048543;28;20021;-45
2022/11/30 07:13:35;;;;;;;3.17;1.23;;;;;;;4.75;64.04;101594.56;5049188;28;20026;-48
2022/11/30 07:16:07;;;;;;;2.60;1.10;;;;;;;4.65;63.91;101593.78;5050805;28;20017;-45
2022/11/30 07:18:34;;;;;;;1.58;0.95;;;;;;;4.50;64.25;101596.13;5051083;28;20504;-49
2022/11/30 07:21:01;;;;;;;1.30;0.77;;;;;;;4.36;64.56;101593.97;5049132;28;20194;-46
2022/11/30 07:26:12;;;;;;;1.33;0.70;;;;;;;4.36;64.33;101588.66;5051484;28;20124;-45
2022/11/30 07:28:44;;;;;;;1.92;0.70;;;;;;;4.37;64.33;101588.50;5048533;28;20026;-48
2022/11/30 07:31:27;;;;;;;2.83;0.90;;;;;;;4.12;64.85;101589.19;5050582;28;20021;-49
2022/11/30 07:33:55;;;;;;;4.25;1.00;;;;;;;4.15;64.32;101588.88;5050538;28;20059;-47
2022/11/30 07:36:24;;;;;;;2.00;0.65;;;;;;;4.44;63.64;101584.31;5050744;28;20542;-48
2022/11/30 07:38:50;;;;;;;2.15;0.70;;;;;;;4.34;64.02;101586.16;5051138;28;20488;-47
2022/11/30 07:41:18;;;;;;;2.90;1.08;;;;;;;4.33;64.00;101592.44;5050548;28;20060;-45
2022/11/30 07:43:44;;;;;;;1.67;0.90;;;;;;;4.32;63.89;101581.97;5054978;28;20044;-45
2022/11/30 07:46:13;;;;;;;5.20;0.80;;;;;;;4.22;63.94;101587.34;5054881;28;20528;-46
2022/11/30 07:48:39;;;;;;;1.58;0.70;;;;;;;4.21;63.85;101590.94;5054377;28;20535;-47
2022/11/30 07:51:10;;;;;;;4.18;1.10;;;;;;;4.24;63.63;101585.38;5054312;28;20317;-46
2022/11/30 07:53:36;;;;;;;1.45;0.80;;;;;;;4.40;63.13;101585.56;5054778;28;20027;-46
2022/11/30 07:56:04;;;;;;;1.35;0.80;;;;;;;4.35;63.33;101584.34;5054463;28;20036;-46
2022/11/30 07:58:31;;;;;;;2.47;0.80;;;;;;;4.44;62.99;101589.59;5046755;28;20079;-44
2022/11/30 08:01:06;;;;;;;0.90;0.50;;;;;;;4.30;63.22;101590.09;5034534;28;20028;-45
2022/11/30 08:03:33;;;;;;;4.57;0.70;;;;;;;4.31;63.17;101594.41;5049394;28;20063;-48
2022/11/30 08:06:11;;;;;;;1.50;0.68;;;;;;;4.34;62.89;101583.50;5054630;28;20051;-47
2022/11/30 08:08:40;;;;;;;1.08;0.40;;;;;;;3.90;64.21;101585.91;5054425;28;20029;-45
2022/11/30 08:11:08;;;;;;;0.95;0.57;;;;;;;3.90;64.04;101575.31;5054212;28;20033;-46
2022/11/30 08:13:35;;;;;;;3.38;1.02;;;;;;;3.68;65.31;101573.03;5054200;28;20033;-46
2022/11/30 08:16:03;;;;;;;3.60;1.10;;;;;;;3.88;64.66;101577.25;5053914;28;20025;-47
2022/11/30 08:18:29;;;;;;;3.00;0.88;;;;;;;3.75;64.82;101568.81;5036526;28;20025;-45
2022/11/30 08:21:00;;;;;;;2.67;0.90;;;;;;;3.64;65.12;101567.16;5053773;28;20425;-45
2022/11/30 08:23:36;;;;;;;1.63;0.65;;;;;;;3.48;65.83;101558.97;5051342;28;20025;-45
2022/11/30 08:26:07;;;;;;;1.40;0.90;;;;;;;3.40;66.63;101556.22;5050459;28;20051;-46
2022/11/30 08:28:37;;;;;;;1.27;0.88;;;;;;;3.26;66.98;101557.47;5053964;28;20381;-46
2022/11/30 08:31:09;;;;;;;1.15;0.93;;;;;;;3.20;66.96;101558.03;5052593;28;20025;-48
2022/11/30 08:33:36;;;;;;;3.75;0.80;;;;;;;2.99;68.04;101571.41;5052002;28;20079;-48
2022/11/30 08:36:15;;;;;;;1.42;0.80;;;;;;;3.25;67.29;101566.38;5053992;28;20033;-45
2022/11/30 08:38:42;;;;;;;2.88;1.05;;;;;;;3.16;67.72;101577.81;5052584;28;20025;-45
2022/11/30 08:41:11;;;;;;;2.35;0.73;;;;;;;3.43;66.47;101563.84;5050151;28;20076;-47
2022/11/30 08:43:37;;;;;;;3.15;0.90;;;;;;;3.56;66.19;101558.28;5053417;28;20029;-48
2022/11/30 08:46:07;;;;;;;1.55;0.80;;;;;;;3.63;65.89;101554.09;5051524;28;20055;-45
2022/11/30 08:48:34;;;;;;;1.20;0.55;;;;;;;3.59;65.93;101557.97;5053023;28;20597;-48
2022/11/30 08:51:09;;;;;;;3.97;0.68;;;;;;;3.68;65.75;101557.13;5052993;28;20057;-45
2022/11/30 08:53:36;;;;;;;1.63;0.93;;;;;;;3.69;65.43;101548.22;5052381;28;20025;-45
2022/11/30 08:56:05;;;;;;;1.90;0.80;;;;;;;3.81;64.83;101548.88;5053766;28;20360;-46
2022/11/30 08:58:34;;;;;;;1.75;0.88;;;;;;;3.86;64.53;101544.81;5043146;28;20021;-45
2022/11/30 09:01:10;;;;;;;1.85;0.90;;;;;;;3.86;64.45;101547.44;5053321;28;20060;-46
2022/11/30 09:03:37;;;;;;;3.05;1.10;;;;;;;3.94;64.14;101547.56;5053291;28;20036;-44
2022/11/30 09:06:26;;;;;;;3.13;1.02;;;;;;;3.95;63.94;101549.25;5053075;28;20059;-45
2022/11/30 09:08:54;;;;;;;0.93;0.70;;;;;;;4.09;64.34;101547.09;5053557;28;20021;-44
2022/11/30 09:11:26;;;;;;;0.68;0.63;;;;;;;4.03;64.28;101555.63;5053168;28;20024;-46
2022/11/30 09:13:55;;;;;;;1.20;0.93;;;;;;;4.03;64.90;101556.44;5053244;28;20056;-46
2022/11/30 09:16:21;;;;;;;2.88;1.17;;;;;;;4.08;64.89;101550.72;5052554;28;20025;-44
2022/11/30 09:18:49;;;;;;;1.55;1.00;;;;;;;4.17;64.48;101548.03;5053487;28;20082;-45
2022/11/30 09:21:18;;;;;;;2.95;1.17;;;;;;;4.38;63.81;101555.72;5040204;28;20080;-45
2022/11/30 09:23:47;;;;;;;1.50;0.95;;;;;;;4.42;63.55;101556.25;5033832;28;20061;-44
2022/11/30 09:26:16;;;;;;;5.38;1.48;;;;;;;4.45;63.41;101550.69;5046149;28;20089;-44
2022/11/30 09:28:44;;;;;;;2.63;1.20;;;;;;;4.32;63.58;101543.06;5052962;28;20040;-44
2022/11/30 09:31:13;;;;;;;2.42;1.20;;;;;;;4.41;63.38;101547.47;5043439;28;20037;-44
2022/11/30 09:33:39;;;;;;;3.08;0.90;;;;;;;4.26;63.72;101548.13;5049176;28;20029;-44
2022/11/30 09:36:08;;;;;;;2.55;1.20;;;;;;;4.19;63.87;101548.72;5052607;28;20033;-47
2022/11/30 09:38:35;;;;;;;2.53;1.42;;;;;;;4.09;64.50;101541.78;5051151;28;20117;-45
2022/11/30 09:41:16;;;;;;;2.38;1.30;;;;;;;4.09;64.72;101536.47;5052399;28;20021;-45
2022/11/30 09:43:55;;;;;;;2.00;1.40;;;;;;;4.08;64.50;101533.00;5052683;28;20040;-48
2022/11/30 09:46:29;;;;;;;3.40;1.60;;;;;;;4.12;64.58;101529.09;5052951;28;20477;-46
2022/11/30 09:49:17;;;;;;;4.60;1.45;;;;;;;4.08;64.84;101527.72;5049484;28;20029;-45
2022/11/30 09:51:53;;;;;;;3.25;1.58;;;;;;;4.12;65.41;101522.97;5053656;23;20053;-45
2022/11/30 09:54:34;;;;;;;;;;;;;;;4.19;65.66;101524.84;5033113;28;20053;-48
2022/11/30 09:57:26;;;;;;;3.13;1.70;;;;;;;4.09;65.79;101520.59;5051144;28;19913;-44
2022/11/30 09:59:58;;;;;;;4.15;1.35;;;;;;;4.06;65.65;101519.09;5032427;28;20036;-47
2022/11/30 10:02:30;;;;;;;2.63;1.52;;;;;;;4.13;65.96;101527.28;5032383;28;20112;-45
2022/11/30 10:04:58;;;;;;;2.03;1.60;;;;;;;4.02;66.82;101520.34;5031827;28;20025;-44
2022/11/30 10:07:45;;;;;;;4.32;1.42;;;;;;;3.85;67.82;101516.66;5048639;28;20021;-44
2022/11/30 10:10:40;;;;;;;4.15;1.27;;;;;;;3.64;68.96;101513.38;5026132;28;20029;-44
2022/11/30 10:13:41;;;;;;;2.60;1.20;;;;;;;3.89;67.83;101501.31;5032107;28;20036;-45
2022/11/30 10:16:34;;;;;;;3.05;1.30;;;;;;;3.95;67.17;101503.38;5010244;28;20060;-45
2022/11/30 10:19:06;;;;;;;1.85;1.25;;;;;;;4.00;67.07;101505.56;5038186;28;20045;-43
2022/11/30 10:21:45;;;;;;;2.15;1.40;;;;;;;3.96;67.90;101505.88;5052013;28;20035;-44
2022/11/30 10:24:17;;;;;;;3.33;1.83;;;;;;;3.90;68.25;101503.81;5052575;28;20037;-44
2022/11/30 10:26:52;;;;;;;2.25;1.50;;;;;;;4.05;67.60;101498.00;5055376;28;20451;-44
2022/11/30 10:29:20;;;;;;;;;;;;;;;4.08;67.49;101495.09;5072135;28;20023;-48
2022/11/30 10:31:50;;;;;;;2.25;1.48;;;;;;;4.07;67.48;101493.41;5063356;28;19925;-47
2022/11/30 10:34:35;;;;;;;3.78;1.48;;;;;;;4.02;68.22;101493.03;5068880;28;20029;-44
2022/11/30 10:37:01;;;;;;;4.65;1.58;;;;;;;3.91;68.65;101488.75;5068878;28;20031;-44
2022/11/30 10:39:33;;;;;;;2.90;1.63;;;;;;;3.81;69.38;101483.50;5060767;28;20020;-43
2022/11/30 10:42:06;;;;;;;4.80;1.23;;;;;;;3.56;70.38;101481.53;5066611;28;20033;-45
2022/11/30 10:44:39;;;;;;;2.42;1.40;;;;;;;4.02;69.24;101479.78;5067483;28;20102;-43
2022/11/30 10:47:28;;;;;;;4.65;1.80;;;;;;;4.07;68.73;101474.88;5066480;28;20020;-44
2022/11/30 10:49:54;;;;;;;2.30;1.27;;;;;;;3.87;69.14;101477.63;5071100;28;20062;-44
2022/11/30 10:52:30;;;;;;;2.90;1.63;;;;;;;3.87;69.13;101474.97;5071519;28;20078;-44
2022/11/30 10:54:57;;;;;;;1.50;1.15;;;;;;;3.90;68.66;101477.34;5071470;28;20032;-44
2022/11/30 10:57:30;;;;;;;2.55;1.30;;;;;;;3.89;68.84;101472.19;5063361;28;20474;-44
2022/11/30 10:59:59;;;;;;;1.98;1.40;;;;;;;3.91;69.25;101479.00;5051184;28;20029;-45
2022/11/30 11:02:47;;;;;;;2.60;1.08;;;;;;;3.89;69.34;101470.38;5060085;28;20029;-47
2022/11/30 11:05:26;;;;;;;2.22;1.23;;;;;;;3.87;69.70;101471.47;5071368;28;20028;-45
2022/11/30 11:08:16;;;;;;;2.13;1.45;;;;;;;3.94;69.39;101469.91;5071236;28;20107;-43
2022/11/30 11:10:43;;;;;;;4.07;1.52;;;;;;;4.00;69.08;101476.44;5071442;28;20357;-45
2022/11/30 11:13:36;;;;;;;1.98;1.23;;;;;;;3.98;69.03;101468.63;5071502;28;20028;-44
2022/11/30 11:16:03;;;;;;;3.47;1.60;;;;;;;4.00;68.84;101471.13;5048131;28;20103;-45
2022/11/30 11:18:32;;;;;;;3.67;1.52;;;;;;;4.16;68.45;101476.63;5054707;28;20025;-44
2022/11/30 11:21:02;;;;;;;4.15;2.10;;;;;;;4.12;68.04;101486.69;5055149;28;20052;-45
2022/11/30 11:23:38;;;;;;;3.22;2.17;;;;;;;3.98;68.14;101490.66;5055165;28;20033;-44
2022/11/30 11:26:05;;;;;;;;;;;;;;;4.18;67.65;101491.41;5055925;28;20339;-43
2022/11/30 11:28:34;;;;;;;5.22;2.90;;;;;;;3.85;68.94;101500.78;5055169;28;20396;-44
2022/11/30 11:31:16;;;;;;;4.45;2.83;;;;;;;3.67;69.25;101495.41;5059348;28;20111;-47
2022/11/30 11:33:51;;;;;;;3.72;2.53;;;;;;;3.51;70.50;101499.66;5075060;28;20477;-45
2022/11/30 11:36:31;;;;;;;4.43;2.65;;;;;;;3.72;69.78;101505.56;5075485;28;20051;-45
2022/11/30 11:38:59;;;;;;;4.32;2.08;;;;;;;3.06;73.02;101502.94;5066328;28;20037;-45
2022/11/30 11:41:33;;;;;;;4.28;1.95;;;;;;;3.15;72.42;101499.44;5055026;28;20029;-45
2022/11/30 11:44:08;;;;;;;6.03;2.00;;;;;;;3.11;72.12;101506.81;5060814;28;20032;-45
2022/11/30 11:47:24;;;;;;;2.33;1.73;;;;;;;3.34;71.37;101510.00;5064866;28;20081;-44